ASN logo
ASN Wikibase Occurrence # 171493
Last updated: 3 November 2020
This information is added by users of ASN. Neither ASN nor the Flight Safety Foundation are responsible for the completeness or correctness of this information. If you feel this information is incomplete or incorrect, you can submit corrected information.

Date:22-NOV-2014
Time:c. 06:40
Type:Silhouette image of generic B738 model; specific model in this crash may look slightly different
Boeing 737-832 (WL)
Owner/operator:Delta Air Lines
Registration: N3771K
C/n / msn: 29632/1103
Fatalities:Fatalities: 0 / Occupants:
Other fatalities:0
Aircraft damage: None
Location:Detroit-Metropolitan Wayne County Airport, MI (DTW/KDTW) -   United States of America
Phase: Taxi
Nature:Passenger - Scheduled
Departure airport:Portland International Airport, OR (PDX/KPDX)
Destination airport:Detroit-Metropolitan Wayne County Airport, MI (DTW/KDTW)
Narrative:
Delta flight DL394 from Portland, Oregon slid off an icy taxiway after landing at Detroit-Metropolitan Airport, Michigan.
The airplane became bogged in the soil next to the runway.

METAR about the incident time (11:40Z):
KDTW 221153Z COR 17009KT 8SM -FZRA OVC017 M02/M06 A3016 RMK AO2 FZRAB1057 SLP222 P0002 60002 70002 T10221056 11022 21061 56027 $
KDTW 221059Z COR 16007KT 10SM -FZRA OVC029 M03/M08 A3019 RMK AO2 FZRAB57 P0000 $

Sources:

https://www.freep.com/story/news/local/michigan/wayne/2014/11/22/detroit-metro-airport-icy-conditions/19395211/?from=new-cookie

Media:


Images:

Photo of N3771K courtesy AirHistory.net


Los Angeles - International (KLAX / LAX)
18 November 2015; (c) Danny Grew

Revision history:

Date/timeContributorUpdates
22-Nov-2014 16:05 harro Added
22-Nov-2014 16:06 harro Updated [Date, Embed code]
22-Nov-2014 16:16 harro Updated [Narrative]
22-Nov-2014 18:01 harro Updated [Narrative]

Corrections or additions? ... Edit this accident description